TimeEST,TemperatureF,Dew PointF,Humidity,Sea Level PressureIn,VisibilityMPH,Wind Direction,Wind SpeedMPH,Gust SpeedMPH,PrecipitationIn,Events,Conditions,WindDirDegrees,DateUTC
12:56 AM,28.0,16.0,61,30.05,10.0,WSW,5.8,-,N/A,,Scattered Clouds,240,2013-01-04 05:56:00
1:56 AM,28.0,17.1,63,30.05,10.0,WSW,4.6,-,N/A,,Partly Cloudy,240,2013-01-04 06:56:00
2:56 AM,26.1,16.0,66,30.05,10.0,West,5.8,-,N/A,,Clear,260,2013-01-04 07:56:00
3:56 AM,27.0,18.0,69,30.05,10.0,West,6.9,-,N/A,,Clear,260,2013-01-04 08:56:00
4:56 AM,28.0,18.0,66,30.05,10.0,West,5.8,-,N/A,,Clear,270,2013-01-04 09:56:00
5:56 AM,28.0,19.0,69,30.06,10.0,West,5.8,-,N/A,,Clear,280,2013-01-04 10:56:00
6:56 AM,28.9,19.0,67,30.06,10.0,West,6.9,-,N/A,,Clear,280,2013-01-04 11:56:00
7:56 AM,30.0,21.0,69,30.07,10.0,West,4.6,-,N/A,,Overcast,260,2013-01-04 12:56:00
8:56 AM,34.0,21.9,61,30.08,10.0,WSW,8.1,-,N/A,,Overcast,250,2013-01-04 13:56:00
9:56 AM,35.1,21.9,59,30.08,10.0,WSW,11.5,-,0.00,,Overcast,250,2013-01-04 14:56:00
10:56 AM,36.0,21.9,57,30.05,10.0,WSW,9.2,-,N/A,,Overcast,240,2013-01-04 15:56:00
11:56 AM,37.0,21.0,52,30.01,10.0,West,13.8,-,N/A,,Mostly Cloudy,260,2013-01-04 16:56:00
12:56 PM,39.0,19.9,46,29.98,10.0,WSW,15.0,-,N/A,,Overcast,240,2013-01-04 17:56:00
2:56 PM,37.9,21.0,51,29.94,10.0,SW,12.7,-,N/A,,Clear,220,2013-01-04 19:56:00
3:56 PM,37.9,19.0,47,29.94,10.0,West,12.7,23.0,N/A,,Clear,260,2013-01-04 20:56:00
4:56 PM,35.1,19.9,54,29.94,10.0,West,8.1,-,N/A,,Clear,260,2013-01-04 21:56:00
5:56 PM,34.0,19.9,56,29.96,10.0,WSW,8.1,-,N/A,,Clear,240,2013-01-04 22:56:00
6:56 PM,35.1,19.9,54,29.97,10.0,WSW,11.5,-,N/A,,Clear,250,2013-01-04 23:56:00
7:56 PM,35.1,19.9,54,29.97,10.0,WSW,10.4,-,N/A,,Clear,240,2013-01-05 00:56:00
8:56 PM,35.1,21.0,57,29.96,10.0,West,10.4,-,N/A,,Clear,270,2013-01-05 01:56:00
9:56 PM,34.0,19.9,56,29.96,10.0,West,10.4,-,N/A,,Clear,260,2013-01-05 02:56:00
10:56 PM,34.0,19.9,56,29.98,10.0,West,9.2,-,N/A,,Clear,270,2013-01-05 03:56:00
11:56 PM,34.0,19.9,56,29.98,10.0,West,10.4,-,N/A,,Clear,270,2013-01-05 04:56:00